.
WxDataArchive / Data Records for 2013-06-11
2013-06-10 June 2013 2013-06-12

Data Records for Tuesday, 11 June 2013

Time	Temp	Chill	HIndex	Humid	Dewpt	 Wind 	HiWind	WindDir	Rain 	Barom 
-----	----	-----	------	-----	-----	------	------	-------	-----	----- 
00:00	67.3	67.3	67.3	87	63.3	1	3	292	0.00	29.797 
00:05	67.1	67.1	67.1	87	63.1	1	3	292	0.00	29.797 
00:10	66.9	66.9	66.9	87	62.9	1	4	292	0.00	29.797 
00:15	66.8	66.8	66.8	86	62.5	2	4	292	0.00	29.798 
00:20	66.6	66.6	66.6	86	62.3	1	3	315	0.00	29.798 
00:25	66.6	66.6	66.6	86	62.3	1	3	315	0.00	29.798 
00:30	66.4	66.4	66.4	86	62.1	1	2	315	0.00	29.798 
00:35	66.3	66.3	66.3	86	62.0	1	3	315	0.00	29.798 
00:40	66.3	66.3	66.3	86	62.0	1	2	315	0.00	29.798 
00:45	66.1	66.1	66.1	86	61.8	1	3	315	0.00	29.804 
00:50	66.1	66.1	66.1	87	62.1	1	5	315	0.00	29.804 
00:55	66.0	66.0	66.0	87	62.0	1	3	270	0.00	29.804 
01:00	66.0	66.0	66.0	88	62.3	0	2	270	0.00	29.806 
01:05	65.8	65.8	65.8	88	62.1	1	3	270	0.00	29.806 
01:10	65.6	65.6	65.6	88	61.9	1	3	270	0.00	29.806 
01:15	65.6	65.6	65.6	88	61.9	1	3	270	0.00	29.807 
01:20	65.5	65.5	65.5	89	62.2	1	3	270	0.00	29.807 
01:25	65.5	65.5	65.5	89	62.2	1	4	270	0.00	29.807 
01:30	65.5	65.5	65.5	89	62.2	2	5	270	0.00	29.800 
01:35	65.3	65.3	65.3	88	61.6	2	5	292	0.00	29.800 
01:40	65.3	65.3	65.3	88	61.6	1	4	315	0.00	29.800 
01:45	65.2	65.2	65.2	88	61.6	1	3	270	0.00	29.806 
01:50	65.2	65.2	65.2	88	61.6	1	2	270	0.00	29.806 
01:55	65.0	65.0	65.0	88	61.4	0	1	270	0.00	29.806 
02:00	65.0	65.0	65.0	88	61.4	0	2	270	0.00	29.811 
02:05	64.8	64.8	64.8	89	61.5	1	3	270	0.00	29.811 
02:10	64.8	64.8	64.8	89	61.5	1	3	270	0.00	29.811 
02:15	64.7	64.7	64.7	89	61.4	1	2	270	0.00	29.810 
02:20	64.5	64.5	64.5	89	61.2	1	2	270	0.00	29.810 
02:25	64.5	64.5	64.5	89	61.2	0	1	270	0.00	29.810 
02:30	64.3	64.3	64.3	89	61.0	1	5	270	0.00	29.812 
02:35	64.2	64.2	64.2	90	61.2	0	2	270	0.00	29.812 
02:40	64.2	64.2	64.2	90	61.2	0	1	270	0.00	29.812 
02:45	64.0	64.0	64.0	90	61.0	0	2	270	0.00	29.812 
02:50	63.9	63.9	63.9	90	60.9	1	3	270	0.00	29.812 
02:55	63.9	63.9	63.9	90	60.9	1	4	270	0.00	29.812 
03:00	63.7	63.7	63.7	91	61.0	0	2	315	0.00	29.817 
03:05	63.7	63.7	63.7	91	61.0	1	2	315	0.00	29.817 
03:10	63.7	63.7	63.7	91	61.0	0	2	315	0.00	29.817 
03:15	63.7	63.7	63.7	91	61.0	1	2	315	0.00	29.824 
03:20	63.7	63.7	63.7	91	61.0	1	3	315	0.00	29.824 
03:25	63.9	63.9	63.9	92	61.5	2	4	270	0.00	29.824 
03:30	63.9	63.9	63.9	92	61.5	2	5	270	0.00	29.827 
03:35	63.9	63.9	63.9	92	61.5	1	4	270	0.00	29.827 
03:40	63.9	63.9	63.9	92	61.5	1	3	270	0.00	29.827 
03:45	63.9	63.9	63.9	92	61.5	0	1	270	0.00	29.828 
03:50	63.9	63.9	63.9	92	61.5	0	3	270	0.00	29.828 
03:55	63.9	63.9	63.9	92	61.5	0	1	270	0.00	29.828 
04:00	63.9	63.9	63.9	92	61.5	0	1	270	0.00	29.830 
04:05	63.9	63.9	63.9	92	61.5	2	5	270	0.00	29.830 
04:10	63.9	63.9	63.9	92	61.5	1	3	270	0.00	29.830 
04:15	63.9	63.9	63.9	92	61.5	1	3	270	0.00	29.830 
04:20	63.9	63.9	63.9	92	61.5	1	3	270	0.00	29.830 
04:25	64.0	64.0	64.0	92	61.6	1	3	270	0.00	29.830 
04:30	63.9	63.9	63.9	92	61.5	1	4	338	0.00	29.836 
04:35	63.9	63.9	63.9	92	61.5	1	3	338	0.00	29.836 
04:40	63.9	63.9	63.9	92	61.5	1	4	338	0.00	29.836 
04:45	63.9	63.9	63.9	92	61.5	1	3	315	0.00	29.841 
04:50	63.9	63.9	63.9	92	61.5	1	3	315	0.00	29.841 
04:55	63.9	63.9	63.9	92	61.5	1	2	248	0.00	29.841 
05:00	64.0	64.0	64.0	92	61.6	1	3	248	0.00	29.845 
05:05	64.0	64.0	64.0	92	61.6	1	4	248	0.00	29.845 
05:10	63.9	63.9	63.9	92	61.5	1	4	315	0.00	29.845 
05:15	63.9	63.9	63.9	92	61.5	1	3	315	0.00	29.848 
05:20	64.0	64.0	64.0	92	61.6	0	2	315	0.00	29.848 
05:25	64.0	64.0	64.0	92	61.6	1	3	315	0.00	29.848 
05:30	63.9	63.9	63.9	92	61.5	0	2	315	0.00	29.849 
05:35	63.9	63.9	63.9	92	61.5	0	2	315	0.00	29.849 
05:40	63.9	63.9	63.9	92	61.5	1	4	315	0.00	29.849 
05:45	63.9	63.9	63.9	92	61.5	1	3	315	0.00	29.853 
05:50	63.7	63.7	63.7	92	61.3	1	2	315	0.00	29.853 
05:55	63.7	63.7	63.7	92	61.3	1	3	315	0.00	29.853 
06:00	63.7	63.7	63.7	92	61.3	1	2	315	0.00	29.858 
06:05	63.7	63.7	63.7	92	61.3	1	4	315	0.00	29.858 
06:10	63.7	63.7	63.7	92	61.3	1	4	270	0.00	29.858 
06:15	63.7	63.7	63.7	92	61.3	1	3	292	0.00	29.866 
06:20	63.5	63.5	63.5	91	60.8	2	5	270	0.00	29.866 
06:25	63.7	63.7	63.7	91	61.0	1	4	292	0.00	29.866 
06:30	63.7	63.7	63.7	91	61.0	1	3	292	0.00	29.876 
06:35	63.7	63.7	63.7	91	61.0	1	4	292	0.00	29.876 
06:40	63.9	63.9	63.9	91	61.2	1	3	292	0.00	29.876 
06:45	63.7	63.7	63.7	91	61.0	2	4	292	0.00	29.878 
06:50	63.7	63.7	63.7	91	61.0	2	5	292	0.00	29.878 
06:55	63.7	63.7	63.7	91	61.0	1	4	270	0.00	29.878 
07:00	63.9	63.9	63.9	91	61.2	1	2	270	0.00	29.880 
07:05	63.9	63.9	63.9	91	61.2	1	2	270	0.00	29.880 
07:10	64.0	64.0	64.0	91	61.3	0	2	270	0.00	29.880 
07:15	64.2	64.2	64.2	91	61.5	0	2	270	0.00	29.891 
07:20	64.2	64.2	64.2	90	61.2	2	4	270	0.00	29.891 
07:25	64.0	64.0	64.0	90	61.0	2	5	270	0.00	29.891 
07:30	64.0	64.0	64.0	90	61.0	1	3	270	0.00	29.888 
07:35	64.0	64.0	64.0	90	61.0	1	3	270	0.00	29.888 
07:40	64.2	64.2	64.2	90	61.2	1	3	270	0.00	29.888 
07:45	64.3	64.3	64.3	90	61.3	1	3	270	0.00	29.894 
07:50	64.5	64.5	64.5	89	61.2	1	3	270	0.00	29.894 
07:55	64.7	64.7	64.7	89	61.4	0	2	270	0.00	29.894 
08:00	64.8	64.8	64.8	89	61.5	1	3	270	0.00	29.892 
08:05	65.2	65.2	65.2	89	61.9	1	3	270	0.00	29.892 
08:10	65.3	65.3	65.3	89	62.0	0	2	270	0.00	29.892 
08:15	65.3	65.3	65.3	88	61.6	0	2	270	0.00	29.892 
08:20	65.5	65.5	65.5	88	61.8	1	3	270	0.00	29.892 
08:25	65.6	65.6	65.6	87	61.6	1	3	270	0.00	29.892 
08:30	65.8	65.8	65.8	87	61.8	1	3	270	0.00	29.895 
08:35	65.8	65.8	65.8	86	61.5	1	3	270	0.00	29.895 
08:40	66.0	66.0	66.0	86	61.7	1	3	270	0.00	29.895 
08:45	66.4	66.4	66.4	85	61.7	1	2	270	0.00	29.902 
08:50	66.8	66.8	66.8	85	62.1	1	3	270	0.00	29.902 
08:55	67.4	67.4	67.4	85	62.7	0	2	270	0.00	29.902 
09:00	67.9	67.9	67.9	83	62.5	1	4	270	0.00	29.905 
09:05	68.1	68.1	68.1	82	62.4	1	3	270	0.00	29.905 
09:10	68.4	68.4	68.4	82	62.7	1	3	270	0.00	29.905 
09:15	68.4	68.4	68.4	81	62.3	0	2	270	0.00	29.900 
09:20	68.6	68.6	68.6	81	62.5	1	2	270	0.00	29.900 
09:25	68.8	68.8	68.8	80	62.4	1	2	270	0.00	29.900 
09:30	68.9	68.9	68.9	80	62.5	1	4	270	0.00	29.906 
09:35	69.1	69.1	69.1	79	62.3	2	4	270	0.00	29.906 
09:40	69.4	69.4	69.4	79	62.6	1	2	270	0.00	29.906 
09:45	69.6	69.6	69.6	78	62.4	1	2	270	0.00	29.909 
09:50	69.9	69.9	69.9	79	63.1	1	3	270	0.00	29.909 
09:55	70.3	70.3	70.3	77	62.7	2	5	315	0.00	29.909 
10:00	70.4	70.4	70.4	76	62.5	2	3	315	0.00	29.910 
10:05	70.9	70.9	70.9	76	62.9	1	3	315	0.00	29.910 
10:10	71.5	71.5	71.5	76	63.5	1	2	315	0.00	29.910 
10:15	71.8	71.8	71.8	75	63.4	1	3	315	0.00	29.906 
10:20	72.0	72.0	72.0	73	62.9	1	4	315	0.00	29.906 
10:25	72.3	72.3	72.3	75	63.9	1	3	315	0.00	29.906 
10:30	72.5	72.5	72.5	72	62.9	2	4	315	0.00	29.907 
10:35	72.7	72.7	72.7	70	62.3	1	3	315	0.00	29.907 
10:40	72.8	72.8	72.8	70	62.4	1	4	315	0.00	29.907 
10:45	73.0	73.0	73.0	70	62.6	1	5	315	0.00	29.907 
10:50	73.7	73.7	73.7	72	64.1	1	4	315	0.00	29.907 
10:55	74.2	74.2	74.2	72	64.6	1	3	315	0.00	29.907 
11:00	74.4	74.4	74.4	71	64.4	2	4	315	0.00	29.912 
11:05	74.6	74.6	74.6	70	64.2	2	4	292	0.00	29.912 
11:10	74.4	74.4	74.4	70	64.0	2	4	292	0.00	29.912 
11:15	74.7	74.7	74.7	71	64.7	1	4	292	0.00	29.910 
11:20	74.9	74.9	74.9	71	64.8	2	4	292	0.00	29.910 
11:25	75.1	75.1	76.7	71	65.0	2	4	292	0.00	29.910 
11:30	75.3	75.3	77.0	69	64.4	2	5	292	0.00	29.912 
11:35	75.6	75.6	77.2	70	65.1	1	4	338	0.00	29.912 
11:40	75.3	75.3	77.0	69	64.4	2	4	270	0.00	29.912 
11:45	75.4	75.4	77.1	69	64.5	1	4	292	0.00	29.917 
11:50	75.8	75.8	77.5	69	64.9	2	3	292	0.00	29.917 
11:55	76.1	76.1	77.8	69	65.2	1	4	292	0.00	29.917 
12:00	76.3	76.3	78.0	68	64.9	2	4	292	0.00	29.915 
12:05	76.3	76.3	78.0	68	64.9	2	5	270	0.00	29.915 
12:10	76.8	76.8	78.6	67	65.0	1	4	270	0.00	29.915 
12:15	76.8	76.8	78.6	65	64.1	1	3	292	0.00	29.914 
12:20	76.7	76.7	78.5	64	63.6	2	4	292	0.00	29.914 
12:25	76.8	76.8	78.6	65	64.1	1	4	315	0.00	29.914 
12:30	77.0	77.0	78.8	64	63.9	2	5	315	0.00	29.905 
12:35	77.2	77.2	79.0	62	63.2	2	4	315	0.00	29.905 
12:40	77.7	77.7	79.5	64	64.5	2	4	270	0.00	29.905 
12:45	78.3	78.3	80.1	63	64.6	1	4	270	0.00	29.901 
12:50	78.5	78.5	80.2	61	63.9	1	4	270	0.00	29.901 
12:55	78.5	78.5	80.1	59	63.0	2	6	292	0.00	29.901 
13:00	78.8	78.8	80.4	59	63.2	1	3	292	0.00	29.902 
13:05	79.2	79.2	81.1	62	65.0	2	4	292	0.00	29.902 
13:10	79.2	79.2	80.8	59	63.6	2	5	270	0.00	29.902 
13:15	79.2	79.2	80.8	59	63.6	2	4	270	0.00	29.899 
13:20	79.4	79.4	81.2	61	64.8	1	4	292	0.00	29.899 
13:25	79.4	79.4	80.9	58	63.3	2	5	292	0.00	29.899 
13:30	79.8	79.8	81.6	60	64.7	0	3	292	0.00	29.889 
13:35	79.8	79.8	81.4	58	63.7	2	5	315	0.00	29.889 
13:40	80.1	80.1	81.8	59	64.5	1	4	315	0.00	29.889 
13:45	80.3	80.3	82.1	59	64.6	1	5	270	0.00	29.888 
13:50	80.9	80.9	82.9	60	65.7	1	3	270	0.00	29.888 
13:55	81.1	81.1	82.6	56	63.9	2	4	270	0.00	29.888 
14:00	80.5	80.5	82.1	57	63.8	2	4	270	0.00	29.883 
14:05	79.9	79.9	81.5	58	63.8	1	3	180	0.00	29.883 
14:10	80.3	80.3	81.9	58	64.2	1	3	270	0.00	29.883 
14:15	80.7	80.7	82.4	58	64.5	1	2	270	0.00	29.881 
14:20	80.7	80.7	82.2	56	63.5	2	6	270	0.00	29.881 
14:25	81.1	81.1	82.8	57	64.4	2	6	270	0.00	29.881 
14:30	80.7	80.7	82.3	57	64.0	1	4	292	0.00	29.883 
14:35	80.5	80.5	82.2	58	64.3	2	4	292	0.00	29.883 
14:40	80.9	80.9	82.7	58	64.7	2	4	292	0.00	29.883 
14:45	81.4	81.4	83.1	57	64.7	2	4	292	0.00	29.878 
14:50	81.6	81.6	83.4	57	64.9	1	3	292	0.00	29.878 
14:55	81.8	81.8	83.2	54	63.5	2	4	292	0.00	29.878 
15:00	81.2	81.2	83.0	58	65.0	1	4	315	0.00	29.874 
15:05	81.2	81.2	82.9	57	64.5	2	4	292	0.00	29.874 
15:10	81.8	81.8	84.1	60	66.5	0	2	292	0.00	29.874 
15:15	81.8	81.8	83.2	54	63.5	1	4	270	0.00	29.871 
15:20	81.8	81.8	83.0	53	63.0	2	5	270	0.00	29.871 
15:25	82.4	82.4	84.2	56	65.1	2	4	270	0.00	29.871 
15:30	82.6	82.6	84.1	54	64.2	2	4	292	0.00	29.872 
15:35	82.6	82.6	84.0	53	63.7	2	5	292	0.00	29.872 
15:40	82.6	82.6	84.1	54	64.2	1	3	292	0.00	29.872 
15:45	82.8	82.8	84.0	52	63.3	1	4	292	0.00	29.869 
15:50	83.6	83.6	84.6	50	63.0	1	2	270	0.00	29.869 
15:55	83.8	83.8	84.9	50	63.1	1	3	270	0.00	29.869 
16:00	83.6	83.6	84.6	50	63.0	2	4	292	0.00	29.858 
16:05	83.4	83.4	84.4	50	62.8	1	2	292	0.00	29.858 
16:10	83.4	83.4	84.4	50	62.8	1	3	292	0.00	29.858 
16:15	84.0	84.0	85.1	50	63.3	1	3	292	0.00	29.856 
16:20	84.3	84.3	85.1	48	62.4	1	2	292	0.00	29.856 
16:25	84.5	84.5	85.3	48	62.6	1	2	292	0.00	29.856 
16:30	84.9	84.9	85.6	47	62.4	1	4	292	0.00	29.851 
16:35	84.7	84.7	85.0	45	61.0	2	5	292	0.00	29.851 
16:40	84.5	84.5	85.6	49	63.2	1	3	292	0.00	29.851 
16:45	84.7	84.7	85.6	48	62.8	1	3	292	0.00	29.850 
16:50	84.3	84.3	84.9	47	61.8	2	5	292	0.00	29.850 
16:55	84.3	84.3	84.7	46	61.2	1	3	270	0.00	29.850 
17:00	84.7	84.7	85.6	48	62.8	0	2	270	0.00	29.840 
17:05	84.9	84.9	85.4	46	61.8	1	3	315	0.00	29.840 
17:10	84.1	84.1	84.6	47	61.7	1	4	270	0.00	29.840 
17:15	83.4	83.4	84.0	48	61.6	2	4	270	0.00	29.837 
17:20	83.4	83.4	84.0	48	61.6	1	5	270	0.00	29.837 
17:25	83.8	83.8	84.1	46	60.8	2	5	292	0.00	29.837 
17:30	83.6	83.6	84.1	47	61.2	1	4	292	0.00	29.826 
17:35	83.0	83.0	83.7	49	61.8	1	4	292	0.00	29.826 
17:40	83.0	83.0	83.9	50	62.4	1	2	292	0.00	29.826 
17:45	83.2	83.2	84.0	49	62.0	1	3	292	0.00	29.841 
17:50	83.8	83.8	84.9	50	63.1	2	5	292	0.00	29.841 
17:55	84.0	84.0	84.5	47	61.6	2	6	292	0.00	29.841 
18:00	83.0	83.0	83.7	49	61.8	2	4	270	0.00	29.851 
18:05	82.8	82.8	83.7	50	62.2	2	5	270	0.00	29.851 
18:10	82.8	82.8	83.7	50	62.2	2	5	270	0.00	29.851 
18:15	82.8	82.8	83.7	50	62.2	2	5	270	0.00	29.846 
18:20	82.4	82.4	83.5	52	63.0	2	6	270	0.00	29.846 
18:25	82.4	82.4	83.2	50	61.9	2	5	292	0.00	29.846 
18:30	82.2	82.2	83.0	50	61.7	1	6	292	0.00	29.825 
18:35	81.8	81.8	82.6	50	61.3	1	4	292	0.00	29.825 
18:40	81.4	81.4	82.3	51	61.5	1	4	292	0.00	29.825 
18:45	81.1	81.1	82.1	52	61.8	1	2	292	0.00	29.816 
18:50	80.9	80.9	82.0	53	62.1	0	2	292	0.00	29.816 
18:55	80.5	80.5	81.6	53	61.8	0	2	292	0.00	29.816 
19:00	80.3	80.3	81.2	51	60.5	1	3	292	0.00	29.833 
19:05	80.3	80.3	81.3	52	61.0	0	2	292	0.00	29.833 
19:10	80.1	80.1	81.2	53	61.4	1	4	292	0.00	29.833 
19:15	80.1	80.1	81.2	53	61.4	1	3	292	0.00	29.858 
19:20	79.9	79.9	81.0	53	61.2	1	3	248	0.00	29.858 
19:25	79.8	79.8	81.0	54	61.7	0	3	248	0.00	29.858 
19:30	79.6	79.6	80.8	54	61.5	1	4	248	0.00	29.840 
19:35	79.6	79.6	80.8	54	61.5	0	2	270	0.00	29.840 
19:40	79.4	79.4	80.6	54	61.3	0	3	270	0.00	29.840 
19:45	79.2	79.2	80.5	55	61.6	0	2	270	0.00	29.825 
19:50	79.0	79.0	80.3	54	60.9	0	3	270	0.00	29.825 
19:55	78.8	78.8	79.9	51	59.1	1	4	270	0.00	29.825 
20:00	78.5	78.5	79.6	50	58.3	0	1	270	0.00	29.827 
20:05	78.1	78.1	79.4	51	58.5	1	3	292	0.00	29.827 
20:10	77.7	77.7	79.1	52	58.6	0	2	292	0.00	29.827 
20:15	77.4	77.4	78.9	52	58.4	0	1	292	0.00	29.809 
20:20	77.2	77.2	78.8	52	58.2	0	1	292	0.00	29.809 
20:25	77.0	77.0	78.7	53	58.5	0	1	292	0.00	29.809 
20:30	77.0	77.0	78.7	54	59.1	0	2	292	0.00	29.814 
20:35	77.0	77.0	78.7	53	58.5	0	2	292	0.00	29.814 
20:40	76.8	76.8	78.6	54	58.9	0	2	292	0.00	29.814 
20:45	76.7	76.7	78.5	54	58.8	0	1	292	0.00	29.828 
20:50	76.5	76.5	78.4	55	59.1	0	1	292	0.00	29.828 
20:55	76.3	76.3	78.3	56	59.4	0	2	292	0.00	29.828 
21:00	76.0	76.0	78.1	57	59.6	0	2	292	0.00	29.841 
21:05	75.8	75.8	77.9	58	59.9	0	1	292	0.00	29.841 
21:10	75.6	75.6	77.8	58	59.8	0	2	292	0.00	29.841 
21:15	75.4	75.4	77.6	59	60.1	0	1	292	0.00	29.845 
21:20	75.1	75.1	77.4	60	60.2	0	1	292	0.00	29.845 
21:25	74.9	74.9	74.9	60	60.1	0	2	292	0.00	29.845 
21:30	74.7	74.7	74.7	61	60.3	0	1	292	0.00	29.840 
21:35	74.6	74.6	74.6	62	60.7	0	1	292	0.00	29.840 
21:40	74.2	74.2	74.2	63	60.8	0	1	292	0.00	29.840 
21:45	74.0	74.0	74.0	64	61.0	0	1	292	0.00	29.841 
21:50	73.9	73.9	73.9	65	61.4	0	2	292	0.00	29.841 
21:55	73.7	73.7	73.7	66	61.6	0	1	292	0.00	29.841 
22:00	73.5	73.5	73.5	66	61.4	0	1	292	0.00	29.844 
22:05	73.3	73.3	73.3	68	62.1	0	1	292	0.00	29.844 
22:10	73.2	73.2	73.2	68	62.0	0	1	292	0.00	29.844 
22:15	73.0	73.0	73.0	69	62.2	0	1	292	0.00	29.852 
22:20	73.0	73.0	73.0	69	62.2	0	0	---	0.00	29.852 
22:25	72.7	72.7	72.7	70	62.3	0	0	---	0.00	29.852 
22:30	72.5	72.5	72.5	70	62.1	0	0	---	0.00	29.854 
22:35	72.3	72.3	72.3	71	62.4	0	0	---	0.00	29.854 
22:40	72.3	72.3	72.3	72	62.8	0	0	---	0.00	29.854 
22:45	72.1	72.1	72.1	72	62.6	0	0	---	0.00	29.858 
22:50	72.0	72.0	72.0	73	62.9	0	0	---	0.00	29.858 
22:55	71.8	71.8	71.8	73	62.7	0	0	---	0.00	29.858 
23:00	71.5	71.5	71.5	74	62.8	0	0	---	0.00	29.856 
23:05	71.3	71.3	71.3	74	62.6	0	0	---	0.00	29.856 
23:10	70.9	70.9	70.9	75	62.6	0	0	---	0.00	29.856 
23:15	70.8	70.8	70.8	76	62.8	0	0	---	0.00	29.856 
23:20	70.4	70.4	70.4	77	62.8	0	0	---	0.00	29.856 
23:25	70.3	70.3	70.3	77	62.7	0	0	---	0.00	29.856 
23:30	69.9	69.9	69.9	78	62.7	0	0	---	0.00	29.852 
23:35	69.8	69.8	69.8	78	62.6	0	0	---	0.00	29.852 
23:40	69.6	69.6	69.6	79	62.8	0	0	---	0.00	29.852 
23:45	69.6	69.6	69.6	80	63.1	0	0	---	0.00	29.853 
23:50	69.4	69.4	69.4	80	63.0	0	0	---	0.00	29.853 
23:55	69.4	69.4	69.4	80	63.0	0	0	---	0.00	29.853 

CoCoRaHS
IN-AL-39
A2 Web Hosting
Creative Commons License
GoDaddy
search engine by freefind advanced

loaded 2018-11-17 06:09:25 • last modified 2010-11-18 10:43:29
Privacy PolicyDisclaimer
• wx.awcolley.com is powered by PmWiki v.2002016 •
• all content (unless otherwise noted) © 2018 A W Colley